Etusivu
METAR-TAF:

METAR-TAF

Lentoasemat :

Kolding, Tanska

Vamdrup

Leveyspiiri: 55-26N, Pituuspiiri: 009-20E, korkeus merenpinnasta: 44 m

Tämänhetkinen sää

Tämä raportti tehtiin 57 minuuttia sitten, kello 14.50 UTC
Tuuli 7 kn idästä/koillisesta
Lämpötila 15°C
Kosteus 94%
Ilmanpaine 1020 hPa
Näkyvyys: 4000 m
Hajonneita pilviä 800 ft:n korkeudessa
Hajonneita pilviä 1300 ft:n korkeudessa
utua

METAR: EKVD 211450Z 07007KT 4000 BR BKN008 BKN013 15/14 Q1020

Aika: 17:47 (15:47 UTC)

Sääennuste

Tämä raportti tehtiin 49 minuuttia sitten, kello 14.58 UTC
Ennuste voimassa 21. päivästä klo 14 UTC - 21. päivään klo 16 UTC
Tuuli 6 kn idästä
Näkyvyys: 8000 m
Hajanaisia pilviä 800 ft:n korkeudessa
Hajonneita pilviä 4000 ft:n korkeudessa
Ajoittain
21. päivästä klo 14 UTC - 21. päivään klo 16 UTC
Näkyvyys: 4000 m
Hajonneita pilviä 800 ft:n korkeudessa
utua

TAF: EKVD 211458Z 2114/2116 09006KT 8000 SCT008 BKN040 TEMPO 2114/2116 4000 BR BKN008

Säähavainnot ja -ennusteet yli 4000 lentoasemalta (METAR- ja TAF-raportit).

Käytössä olevat sääasemat on merkitty karttaan keltaisilla ja punaisilla pisteillä.

Aseta hiiri pisteen päälle nähdäksesi sääaseman nimen.

Klikkaa sitten nähdäksesi säähavainnot ja -ennusteet.

Kartan vaihtaminen: klikkaa mustalla rastilla varustettuja vihreitä pisteitä, niin voit zoomata sisään; viivalla varustettua vihreää pistettä, niin voit zoomata ulos tai vihreitä nuolia, niin pääset viereisille kartoille.


METAR-TAF: